KBKW/BKW METAR and TAF weather

Enter ICAO airport designator
Station Type Date Time Source
KBKW METAR 2019/10/18 05:51 UTC NOAA

KBKW 180551Z AUTO 26004KT 10SM OVC042 05/01 A2999 RMK AO2 SLP159 T00500011 10078 20033 56001


Station Type Date Time Source
KBKW Decoded METAR 2019/10/18 05:51 UTC NOAA

RALEIGH COUNTY MEM AIRPORT , WV, United States (KBKW) 37-48N 081-07W 764M
Oct 18, 2019 - 01:51 AM EDT / 2019.10.18 0551 UTC
Wind: from the W (260 degrees) at 5 MPH (4 KT):0
Visibility: 10 mile(s):0
Sky conditions: overcast
Temperature: 41.0 F (5.0 C)
Dew Point: 34.0 F (1.1 C)
Relative Humidity: 75%
Pressure (altimeter): 29.99 in. Hg (1015 hPa)
Pressure tendency: 0.00 inches (0.1 hPa) lower than three hours ago
ob: KBKW 180551Z AUTO 26004KT 10SM OVC042 05/01 A2999 RMK AO2 SLP159 T00500011 10078 20033 56001
cycle: 6

Station Type Date Time Source
KBKW TAF 2019/10/18 06:30 UTC NOAA

TAF KBKW 180527Z 1806/1906 26005KT P6SM BKN040
FM181400 30005KT P6SM SKC
FM181600 33007KT P6SM FEW040

Example: see airport list